RJTE(METAR)
08/24 02:00
METAR RJTE 231700Z 22009KT 190V250 9999 BKN120 26/22 Q1006 RMK
6AC120 A2973=
戻る
トップページへ戻る
IMOC Co,.Ltd.